createdAt,value
2018-12-25T00:00:54.891Z,89.06
2018-12-25T00:03:58.395Z,89.20
2018-12-25T00:07:01.864Z,88.76
2018-12-25T00:10:05.740Z,89.12
2018-12-25T00:13:09.291Z,88.92
2018-12-25T00:16:13.942Z,89.33
2018-12-25T00:19:17.445Z,89.91
2018-12-25T00:22:21.072Z,89.58
2018-12-25T00:25:24.716Z,90.07
2018-12-25T00:28:28.289Z,90.55
2018-12-25T00:31:32.057Z,90.97
2018-12-25T00:34:35.698Z,90.52
2018-12-25T00:37:39.318Z,89.29
2018-12-25T00:40:42.765Z,88.49
2018-12-25T00:43:46.491Z,88.06
2018-12-25T00:46:50.358Z,88.77
2018-12-25T00:49:53.905Z,89.58
2018-12-25T00:52:57.421Z,89.96
2018-12-25T00:56:01.316Z,90.55
2018-12-25T00:59:04.866Z,91.11
2018-12-25T01:02:08.339Z,91.48
2018-12-25T01:05:11.985Z,90.60
2018-12-25T01:08:15.772Z,91.38
2018-12-25T01:11:19.222Z,90.31
2018-12-25T01:14:22.714Z,90.93
2018-12-25T01:17:26.385Z,91.03
2018-12-25T01:20:30.014Z,91.49
2018-12-25T01:23:33.537Z,90.02
2018-12-25T01:26:37.293Z,91.23
2018-12-25T01:29:40.737Z,90.22
2018-12-25T01:32:44.205Z,91.35
2018-12-25T01:35:47.807Z,91.27
2018-12-25T01:38:51.363Z,91.91
2018-12-25T01:41:54.899Z,91.31
2018-12-25T01:44:58.381Z,90.83
2018-12-25T01:48:01.915Z,91.57
2018-12-25T01:51:05.562Z,91.31
2018-12-25T01:54:09.117Z,91.37
2018-12-25T01:57:12.830Z,91.16
2018-12-25T02:00:16.397Z,91.33
2018-12-25T02:03:19.923Z,89.97
2018-12-25T02:06:23.413Z,90.58
2018-12-25T02:09:26.933Z,89.90
2018-12-25T02:12:30.454Z,90.17
2018-12-25T02:15:33.930Z,89.47
2018-12-25T02:18:37.592Z,88.68
2018-12-25T02:21:41.125Z,89.21
2018-12-25T02:24:44.710Z,90.48
2018-12-25T02:27:49.538Z,90.18
2018-12-25T02:30:53.063Z,90.15
2018-12-25T02:33:56.548Z,90.31
2018-12-25T02:36:59.963Z,89.82
2018-12-25T02:40:03.721Z,90.88
2018-12-25T02:43:07.139Z,91.03
2018-12-25T02:46:10.680Z,90.92
2018-12-25T02:49:14.262Z,91.14
2018-12-25T02:52:17.732Z,91.15
2018-12-25T02:55:21.260Z,89.59
2018-12-25T02:58:24.761Z,89.93
2018-12-25T03:01:28.324Z,89.28
2018-12-25T03:04:31.887Z,90.24
2018-12-25T03:07:35.425Z,89.80
2018-12-25T03:10:39.210Z,90.52
2018-12-25T03:13:42.733Z,90.08
2018-12-25T03:16:46.321Z,88.79
2018-12-25T03:19:49.785Z,89.52
2018-12-25T03:22:53.301Z,89.32
2018-12-25T03:25:56.703Z,89.33
2018-12-25T03:29:00.214Z,89.55
2018-12-25T03:32:03.835Z,89.47
2018-12-25T03:35:07.423Z,89.92
2018-12-25T03:38:11.862Z,90.48
2018-12-25T03:41:15.405Z,90.57
2018-12-25T03:44:18.909Z,91.00
2018-12-25T03:47:22.469Z,90.97
2018-12-25T03:50:25.852Z,90.26
2018-12-25T03:53:29.404Z,89.54
2018-12-25T03:56:33.040Z,89.56
2018-12-25T03:59:36.572Z,89.67
2018-12-25T04:02:39.995Z,89.11
2018-12-25T04:05:43.392Z,88.45
2018-12-25T04:08:46.882Z,89.08
2018-12-25T04:11:50.396Z,89.06
2018-12-25T04:14:53.903Z,88.47
2018-12-25T04:17:57.394Z,88.51
2018-12-25T04:21:01.025Z,88.84
2018-12-25T04:24:04.753Z,88.47
2018-12-25T04:27:08.696Z,88.78
2018-12-25T04:30:12.219Z,88.78
2018-12-25T04:33:15.606Z,88.75
2018-12-25T04:36:18.999Z,88.90
2018-12-25T04:39:22.461Z,89.30
2018-12-25T04:42:25.820Z,89.55
2018-12-25T04:45:29.302Z,89.05
2018-12-25T04:48:32.798Z,88.77
2018-12-25T04:51:36.374Z,87.76
2018-12-25T04:54:39.821Z,87.88
2018-12-25T04:57:43.375Z,87.24
2018-12-25T05:00:46.970Z,87.22
2018-12-25T05:03:50.517Z,87.43
2018-12-25T05:06:54.035Z,88.04
2018-12-25T05:09:57.736Z,88.41
2018-12-25T05:13:01.245Z,88.73
2018-12-25T05:16:04.834Z,88.77
2018-12-25T05:19:08.541Z,88.88
2018-12-25T05:22:12.127Z,89.30
2018-12-25T05:25:15.776Z,88.46
2018-12-25T05:28:19.339Z,88.50
2018-12-25T05:31:23.001Z,87.59
2018-12-25T05:34:26.699Z,87.62
2018-12-25T05:37:31.237Z,88.09
2018-12-25T05:40:34.979Z,88.57
2018-12-25T05:43:38.678Z,88.84
2018-12-25T05:46:42.382Z,88.64
2018-12-25T05:49:46.935Z,88.25
2018-12-25T05:52:51.502Z,88.05
2018-12-25T05:55:55.103Z,87.99
2018-12-25T05:58:58.602Z,87.85
2018-12-25T06:02:02.228Z,88.16
2018-12-25T06:05:06.074Z,87.93
2018-12-25T06:08:09.766Z,88.20
2018-12-25T06:11:13.377Z,88.15
2018-12-25T06:14:17.112Z,87.63
2018-12-25T06:17:20.809Z,86.99
2018-12-25T06:20:24.499Z,87.04
2018-12-25T06:23:28.007Z,86.73
2018-12-25T06:26:31.612Z,86.68
2018-12-25T06:29:35.137Z,86.37
2018-12-25T06:32:38.885Z,86.77
2018-12-25T06:35:42.428Z,86.52
2018-12-25T06:38:46.045Z,86.47
2018-12-25T06:41:49.700Z,86.78
2018-12-25T06:44:53.320Z,86.51
2018-12-25T06:47:57.021Z,86.27
2018-12-25T06:51:04.022Z,86.35
2018-12-25T06:54:04.234Z,86.81
2018-12-25T06:57:07.808Z,87.23
2018-12-25T07:00:11.346Z,86.98
2018-12-25T07:03:14.925Z,86.76
2018-12-25T07:06:18.530Z,87.12
2018-12-25T07:09:22.187Z,87.22
2018-12-25T07:12:25.769Z,86.95
2018-12-25T07:15:33.254Z,86.35
2018-12-25T07:18:32.872Z,87.52
2018-12-25T07:21:36.478Z,88.24
2018-12-25T07:24:40.216Z,88.95
2018-12-25T07:27:43.621Z,89.31
2018-12-25T07:30:47.265Z,89.28
2018-12-25T07:33:50.851Z,89.29
2018-12-25T07:36:54.429Z,89.01
2018-12-25T07:39:58.301Z,88.88
2018-12-25T07:43:01.957Z,88.76
2018-12-25T07:46:05.649Z,87.83
2018-12-25T07:49:09.259Z,88.15
2018-12-25T07:52:12.982Z,88.25
2018-12-25T07:55:16.534Z,87.53
2018-12-25T07:58:20.138Z,87.44
2018-12-25T08:01:23.850Z,86.91
2018-12-25T08:04:27.462Z,86.45
2018-12-25T08:07:31.042Z,86.88
2018-12-25T08:10:34.751Z,87.34
2018-12-25T08:13:38.381Z,88.11
2018-12-25T08:16:41.940Z,88.65
2018-12-25T08:19:45.603Z,88.62
2018-12-25T08:22:49.209Z,89.05
2018-12-25T08:25:52.787Z,89.22
2018-12-25T08:28:56.353Z,88.96
2018-12-25T08:31:59.946Z,90.32
2018-12-25T08:35:03.636Z,89.88
2018-12-25T08:38:07.210Z,89.63
2018-12-25T08:41:11.792Z,90.50
2018-12-25T08:44:15.397Z,90.90
2018-12-25T08:47:18.897Z,91.14
2018-12-25T08:50:22.599Z,92.17
2018-12-25T08:53:26.301Z,91.83
2018-12-25T08:56:29.900Z,91.20
2018-12-25T08:59:33.502Z,91.98
2018-12-25T09:02:36.994Z,92.15
2018-12-25T09:05:40.611Z,91.84
2018-12-25T09:08:44.245Z,90.79
2018-12-25T09:11:47.848Z,91.61
2018-12-25T09:14:51.374Z,91.44
2018-12-25T09:17:55.229Z,91.44
2018-12-25T09:20:58.847Z,91.27
2018-12-25T09:24:02.458Z,90.47
2018-12-25T09:27:06.160Z,90.35
2018-12-25T09:30:09.647Z,90.09
2018-12-25T09:33:13.253Z,90.46
2018-12-25T09:36:16.842Z,90.98
2018-12-25T09:39:21.760Z,90.21
2018-12-25T09:42:25.296Z,90.81
2018-12-25T09:45:28.939Z,90.87
2018-12-25T09:48:32.486Z,89.05
2018-12-25T09:51:36.093Z,90.08
2018-12-25T09:54:39.605Z,89.11
2018-12-25T09:57:43.201Z,88.35
2018-12-25T10:00:46.811Z,87.86
2018-12-25T10:03:50.440Z,87.16
2018-12-25T10:06:53.927Z,86.21
2018-12-25T10:09:57.909Z,85.75
2018-12-25T10:13:01.537Z,85.58
2018-12-25T10:16:05.229Z,84.97
2018-12-25T10:19:10.155Z,84.20
2018-12-25T10:22:13.763Z,84.14
2018-12-25T10:25:17.366Z,83.02
2018-12-25T10:28:24.862Z,83.97
2018-12-25T10:31:28.233Z,84.29
2018-12-25T10:34:31.968Z,85.30
2018-12-25T10:37:35.464Z,83.83
2018-12-25T10:40:38.889Z,82.76
2018-12-25T10:43:42.584Z,82.81
2018-12-25T10:46:46.243Z,83.63
2018-12-25T10:49:49.759Z,82.73
2018-12-25T10:52:53.395Z,81.59
2018-12-25T10:55:57.288Z,81.71
2018-12-25T10:59:00.804Z,81.38
2018-12-25T11:02:04.635Z,80.89
2018-12-25T11:05:15.695Z,80.37
2018-12-25T11:08:20.611Z,80.41
2018-12-25T11:11:24.150Z,80.12
2018-12-25T11:14:27.548Z,77.51
2018-12-25T11:17:31.022Z,77.53
2018-12-25T11:20:35.230Z,77.20
2018-12-25T11:23:39.247Z,77.07
2018-12-25T11:26:42.753Z,76.33
2018-12-25T11:29:46.358Z,75.29
2018-12-25T11:32:50.849Z,76.05
2018-12-25T11:35:54.437Z,75.79
2018-12-25T11:38:58.085Z,75.03
2018-12-25T11:42:01.740Z,75.08
2018-12-25T11:45:05.378Z,74.83
2018-12-25T11:48:09.015Z,74.96
2018-12-25T11:51:12.510Z,75.50
2018-12-25T11:54:15.908Z,75.42
2018-12-25T11:57:20.394Z,74.16
2018-12-25T12:00:23.841Z,73.47
2018-12-25T12:03:29.052Z,73.42
2018-12-25T12:06:32.895Z,74.90
2018-12-25T12:09:36.685Z,73.96
2018-12-25T12:12:40.202Z,74.30
2018-12-25T12:15:43.885Z,73.66
2018-12-25T12:18:47.487Z,72.79
2018-12-25T12:21:51.089Z,73.87
2018-12-25T12:24:54.770Z,72.92
2018-12-25T12:27:58.244Z,72.51
2018-12-25T12:31:01.951Z,73.31
2018-12-25T12:34:05.641Z,73.86
2018-12-25T12:37:12.118Z,73.43
2018-12-25T12:40:15.835Z,74.52
2018-12-25T12:43:20.213Z,73.18
2018-12-25T12:46:23.882Z,72.46
2018-12-25T12:49:28.720Z,73.13
2018-12-25T12:52:32.366Z,72.63
2018-12-25T12:55:37.793Z,72.23
2018-12-25T12:58:43.221Z,71.10
2018-12-25T13:01:48.186Z,70.39
2018-12-25T13:04:51.674Z,71.07
2018-12-25T13:07:55.104Z,71.01
2018-12-25T13:10:58.583Z,70.92
2018-12-25T13:14:01.979Z,70.62
2018-12-25T13:17:05.451Z,70.67
2018-12-25T13:20:09.149Z,70.79
2018-12-25T13:23:12.690Z,70.86
2018-12-25T13:26:16.064Z,70.79
2018-12-25T13:29:19.497Z,71.28
2018-12-25T13:32:22.973Z,68.82
2018-12-25T13:35:26.448Z,69.27
2018-12-25T13:38:30.137Z,69.13
2018-12-25T13:41:33.764Z,68.34
2018-12-25T13:44:37.299Z,68.29
2018-12-25T13:47:40.949Z,67.21
2018-12-25T13:50:44.303Z,68.67
2018-12-25T13:53:47.910Z,66.17
2018-12-25T13:56:51.482Z,65.53
2018-12-25T13:59:55.048Z,68.11
2018-12-25T14:02:58.519Z,68.28
2018-12-25T14:06:02.128Z,68.43
2018-12-25T14:09:07.576Z,68.53
2018-12-25T14:12:11.104Z,68.54
2018-12-25T14:15:14.552Z,69.11
2018-12-25T14:18:18.009Z,69.16
2018-12-25T14:21:21.510Z,70.17
2018-12-25T14:24:25.053Z,70.49
2018-12-25T14:27:28.693Z,70.11
2018-12-25T14:30:32.315Z,71.46
2018-12-25T14:33:35.841Z,71.05
2018-12-25T14:36:39.468Z,71.82
2018-12-25T14:39:44.087Z,71.56
2018-12-25T14:42:47.653Z,72.01
2018-12-25T14:45:51.183Z,72.60
2018-12-25T14:48:59.210Z,72.68
2018-12-25T14:52:02.740Z,73.43
2018-12-25T14:55:06.477Z,72.27
2018-12-25T14:58:10.124Z,73.43
2018-12-25T15:01:13.717Z,72.80
2018-12-25T15:04:17.366Z,72.80
2018-12-25T15:07:21.063Z,73.72
2018-12-25T15:10:24.871Z,74.52
2018-12-25T15:13:28.633Z,74.91
2018-12-25T15:16:32.219Z,74.91
2018-12-25T15:19:36.144Z,75.46
2018-12-25T15:22:40.722Z,75.67
2018-12-25T15:25:43.550Z,75.74
2018-12-25T15:28:47.118Z,76.07
2018-12-25T15:31:50.667Z,76.43
2018-12-25T15:34:55.936Z,76.67
2018-12-25T15:37:59.324Z,77.63
2018-12-25T15:41:02.743Z,78.06
2018-12-25T15:44:06.194Z,78.57
2018-12-25T15:47:09.648Z,79.75
2018-12-25T15:50:13.257Z,80.80
2018-12-25T15:53:16.718Z,81.16
2018-12-25T15:56:20.259Z,81.68
2018-12-25T15:59:23.673Z,82.08
2018-12-25T16:02:27.247Z,82.26
2018-12-25T16:05:30.759Z,82.32
2018-12-25T16:08:34.153Z,82.53
2018-12-25T16:11:37.887Z,82.89
2018-12-25T16:14:41.349Z,83.25
2018-12-25T16:17:44.896Z,83.76
2018-12-25T16:20:48.358Z,83.26
2018-12-25T16:23:51.781Z,83.57
2018-12-25T16:26:55.175Z,83.84
2018-12-25T16:29:58.679Z,84.96
2018-12-25T16:33:02.097Z,85.41
2018-12-25T16:36:05.627Z,85.24
2018-12-25T16:39:09.160Z,85.17
2018-12-25T16:42:12.689Z,84.55
2018-12-25T16:45:16.197Z,85.65
2018-12-25T16:48:19.667Z,85.55
2018-12-25T16:51:23.198Z,86.48
2018-12-25T16:54:26.816Z,86.54
2018-12-25T16:57:30.341Z,85.26
2018-12-25T17:00:33.706Z,86.08
2018-12-25T17:03:37.252Z,86.91
2018-12-25T17:06:40.864Z,86.26
2018-12-25T17:09:44.390Z,87.58
2018-12-25T17:12:47.916Z,87.74
2018-12-25T17:15:51.418Z,88.08
2018-12-25T17:18:55.179Z,87.61
2018-12-25T17:21:59.494Z,87.97
2018-12-25T17:25:03.125Z,88.28
2018-12-25T17:28:07.265Z,88.50
2018-12-25T17:31:10.929Z,88.75
2018-12-25T17:34:14.577Z,89.84
2018-12-25T17:37:18.047Z,90.03
2018-12-25T17:40:21.748Z,90.63
2018-12-25T17:43:25.412Z,90.66
2018-12-25T17:46:28.978Z,91.56
2018-12-25T17:49:32.567Z,89.99
2018-12-25T17:52:36.804Z,91.56
2018-12-25T17:55:40.526Z,90.94
2018-12-25T17:58:44.256Z,91.20
2018-12-25T18:01:48.153Z,90.54
2018-12-25T18:04:52.166Z,90.59
2018-12-25T18:07:55.768Z,90.32
2018-12-25T18:11:00.362Z,90.72
2018-12-25T18:14:04.258Z,91.15
2018-12-25T18:17:07.683Z,91.08
2018-12-25T18:20:11.105Z,91.84
2018-12-25T18:23:14.721Z,91.68
2018-12-25T18:26:18.284Z,91.56
2018-12-25T18:29:22.186Z,92.47
2018-12-25T18:32:25.712Z,91.53
2018-12-25T18:35:30.241Z,91.22
2018-12-25T18:38:33.698Z,91.74
2018-12-25T18:41:37.207Z,91.45
2018-12-25T18:44:40.763Z,91.86
2018-12-25T18:47:44.350Z,92.36
2018-12-25T18:50:47.759Z,93.34
2018-12-25T18:53:51.313Z,93.93
2018-12-25T18:56:54.861Z,93.26
2018-12-25T18:59:58.265Z,92.70
2018-12-25T19:03:01.866Z,91.97
2018-12-25T19:06:05.496Z,91.64
2018-12-25T19:09:08.884Z,92.74
2018-12-25T19:12:12.395Z,93.44
2018-12-25T19:15:23.767Z,92.63
2018-12-25T19:18:27.499Z,92.15
2018-12-25T19:21:31.394Z,93.00
2018-12-25T19:24:36.418Z,94.16
2018-12-25T19:27:38.473Z,93.66
2018-12-25T19:30:42.171Z,91.30
2018-12-25T19:33:45.707Z,92.72
2018-12-25T19:36:49.329Z,92.52
2018-12-25T19:39:52.978Z,92.06
2018-12-25T19:42:56.469Z,92.97
2018-12-25T19:46:00.041Z,93.24
2018-12-25T19:49:03.613Z,93.46
2018-12-25T19:52:07.201Z,93.96
2018-12-25T19:55:10.680Z,94.29
2018-12-25T19:58:14.404Z,94.78
2018-12-25T20:01:17.996Z,94.41
2018-12-25T20:04:37.935Z,94.58
2018-12-25T20:10:07.706Z,95.35
2018-12-25T20:13:24.166Z,96.00
2018-12-25T20:16:45.761Z,94.56
2018-12-25T20:20:10.137Z,94.51
2018-12-25T20:24:26.558Z,94.63
2018-12-25T20:27:58.796Z,94.86
2018-12-25T20:32:47.163Z,93.36
2018-12-25T20:36:43.859Z,93.79
2018-12-25T20:40:07.195Z,94.66
2018-12-25T20:44:20.453Z,95.01
2018-12-25T20:47:57.919Z,94.94
2018-12-25T20:51:13.218Z,94.58
2018-12-25T20:54:35.622Z,94.46
2018-12-25T20:57:54.305Z,93.61
2018-12-25T21:01:09.495Z,93.42
2018-12-25T21:05:22.675Z,92.84
2018-12-25T21:12:51.760Z,92.79
2018-12-25T21:17:02.898Z,92.47
2018-12-25T21:20:31.373Z,93.79
2018-12-25T21:23:46.180Z,94.04
2018-12-25T21:27:01.003Z,93.30
2018-12-25T21:30:07.896Z,93.37
2018-12-25T21:33:11.595Z,94.23
2018-12-25T21:36:16.323Z,95.40
2018-12-25T21:39:20.892Z,94.51
2018-12-25T21:42:24.327Z,95.23
2018-12-25T21:45:28.284Z,94.42
2018-12-25T21:48:31.817Z,94.69
2018-12-25T21:51:35.288Z,95.39
2018-12-25T21:54:38.756Z,94.63
2018-12-25T21:57:42.291Z,95.70
2018-12-25T22:00:45.914Z,94.54
2018-12-25T22:03:49.500Z,94.58
2018-12-25T22:06:53.072Z,94.27
2018-12-25T22:09:56.700Z,95.03
2018-12-25T22:13:00.284Z,94.69
2018-12-25T22:16:03.939Z,95.26
2018-12-25T22:19:07.473Z,95.02
2018-12-25T22:22:11.202Z,95.26
2018-12-25T22:25:14.841Z,95.85
2018-12-25T22:28:18.467Z,95.31
2018-12-25T22:31:22.022Z,95.09
2018-12-25T22:34:25.654Z,95.19
2018-12-25T22:37:29.169Z,94.88
2018-12-25T22:40:33.772Z,95.38
2018-12-25T22:43:37.406Z,96.33
2018-12-25T22:46:40.915Z,96.18
2018-12-25T22:49:44.471Z,95.67
2018-12-25T22:52:48.934Z,95.29
2018-12-25T22:55:52.503Z,94.84
2018-12-25T22:58:56.020Z,95.74
2018-12-25T23:01:59.631Z,95.72
2018-12-25T23:05:03.265Z,95.20
2018-12-25T23:08:06.942Z,94.88
2018-12-25T23:11:10.453Z,94.56
2018-12-25T23:14:14.004Z,94.22
2018-12-25T23:17:17.448Z,93.91
2018-12-25T23:20:28.473Z,93.03
2018-12-25T23:23:25.612Z,94.38
2018-12-25T23:26:29.183Z,94.92
2018-12-25T23:29:33.701Z,94.83
2018-12-25T23:32:37.316Z,95.15
2018-12-25T23:35:40.862Z,95.35
2018-12-25T23:38:44.331Z,95.20
2018-12-25T23:41:47.927Z,94.89
2018-12-25T23:44:51.542Z,95.23
2018-12-25T23:47:55.154Z,95.34
2018-12-25T23:50:58.758Z,95.44
2018-12-25T23:54:03.450Z,95.57
2018-12-25T23:57:07.059Z,95.04
